Terminal Aerodrome Forecast
Issued by NWS Green Bay, WI

Home | Current Version | Previous Version | Text Only | Print | Product List | Glossary Off
Versions: 1 2 3 4 5 6 7 8 9 10 11 12 13 14 15 16 17 18 19 20 21 22 23 24 25 26 27 28 29 30 31 32 33 34 35 36

000
FTUS43 KGRB 222300
TAFGRB
TAF
KGRB 222320Z 2300/2324 21006KT P6SM FEW120 BKN250
     FM230500 22011KT P6SM SCT018 BKN120 WS015/24035KT
      TEMPO 2305/2309 BKN018
     FM230900 23012KT P6SM OVC018 WS015/25040KT
     FM231500 23014G24KT P6SM SCT018 OVC080 PROB30 2317/2320 5SM -SN
      BKN018
     FM232000 23012G18KT 6SM -SN SCT015 OVC030
      TEMPO 2320/2323 4SM -SN BR BKN015
     FM232300 25008KT 6SM -FZDZSN BR OVC012=

USA.gov is the U.S. government's official web portal to all federal, state and local government web resources and services.